createdAt,value
2022-12-13T00:00:53.655Z,99.99
2022-12-13T00:01:53.736Z,99.99
2022-12-13T00:02:53.631Z,99.99
2022-12-13T00:03:53.651Z,99.99
2022-12-13T00:04:53.621Z,99.99
2022-12-13T00:05:53.627Z,99.99
2022-12-13T00:06:53.613Z,99.99
2022-12-13T00:07:53.663Z,99.99
2022-12-13T00:08:53.615Z,99.99
2022-12-13T00:09:53.583Z,99.99
2022-12-13T00:10:53.581Z,99.99
2022-12-13T00:11:53.613Z,99.99
2022-12-13T00:12:53.634Z,99.99
2022-12-13T00:13:53.594Z,99.99
2022-12-13T00:14:53.548Z,99.99
2022-12-13T00:15:53.544Z,99.99
2022-12-13T00:16:53.563Z,99.99
2022-12-13T00:17:53.528Z,99.99
2022-12-13T00:18:53.534Z,99.99
2022-12-13T00:19:53.530Z,99.99
2022-12-13T00:20:53.512Z,99.99
2022-12-13T00:21:53.532Z,99.99
2022-12-13T00:22:53.505Z,99.99
2022-12-13T00:23:53.489Z,99.99
2022-12-13T00:24:53.475Z,99.99
2022-12-13T00:25:53.500Z,99.99
2022-12-13T00:26:53.465Z,99.99
2022-12-13T00:27:53.452Z,99.99
2022-12-13T00:28:53.459Z,99.99
2022-12-13T00:29:53.426Z,99.99
2022-12-13T00:30:53.446Z,99.99
2022-12-13T00:32:00.047Z,99.99
2022-12-13T00:32:55.450Z,99.99
2022-12-13T00:33:53.430Z,99.99
2022-12-13T00:34:53.430Z,99.99
2022-12-13T00:35:53.384Z,99.99
2022-12-13T00:36:53.400Z,99.99
2022-12-13T00:37:53.393Z,99.99
2022-12-13T00:38:53.368Z,99.99
2022-12-13T00:39:53.372Z,99.99
2022-12-13T00:40:53.346Z,99.99
2022-12-13T00:41:53.374Z,99.99
2022-12-13T00:42:53.354Z,99.99
2022-12-13T00:43:54.332Z,99.99
2022-12-13T00:44:53.351Z,99.99
2022-12-13T00:45:53.390Z,99.99
2022-12-13T00:46:53.344Z,99.99
2022-12-13T00:47:53.315Z,99.99
2022-12-13T00:48:53.310Z,99.99
2022-12-13T00:49:53.283Z,99.99
2022-12-13T00:50:53.301Z,99.99
2022-12-13T00:51:53.364Z,99.99
2022-12-13T00:52:53.275Z,99.99
2022-12-13T00:53:53.255Z,99.99
2022-12-13T00:54:53.300Z,99.99
2022-12-13T00:55:53.233Z,99.99
2022-12-13T00:56:53.261Z,99.99
2022-12-13T00:57:53.285Z,99.99
2022-12-13T00:58:53.226Z,99.99
2022-12-13T00:59:53.206Z,99.99
2022-12-13T01:00:53.206Z,99.99
2022-12-13T01:01:53.266Z,99.99
2022-12-13T01:02:53.188Z,99.99
2022-12-13T01:03:53.203Z,99.99
2022-12-13T01:04:53.186Z,99.99
2022-12-13T01:06:17.625Z,99.99
2022-12-13T01:06:55.842Z,99.99
2022-12-13T01:07:53.191Z,99.99
2022-12-13T01:08:53.159Z,99.99
2022-12-13T01:09:53.129Z,99.99
2022-12-13T01:10:53.147Z,99.99
2022-12-13T01:11:53.161Z,99.99
2022-12-13T01:12:53.138Z,99.99
2022-12-13T01:13:53.863Z,99.99
2022-12-13T01:14:56.032Z,99.99
2022-12-13T01:15:54.098Z,99.99
2022-12-13T01:16:53.176Z,99.99
2022-12-13T01:17:53.106Z,99.99
2022-12-13T01:18:53.061Z,99.99
2022-12-13T01:19:53.135Z,99.99
2022-12-13T01:20:53.104Z,99.99
2022-12-13T01:21:53.048Z,99.99
2022-12-13T01:22:53.062Z,99.99
2022-12-13T01:23:53.046Z,99.99
2022-12-13T01:24:53.019Z,99.99
2022-12-13T01:25:53.035Z,99.99
2022-12-13T01:26:53.018Z,99.99
2022-12-13T01:27:53.020Z,99.99
2022-12-13T01:28:53.001Z,99.99
2022-12-13T01:29:52.997Z,99.99
2022-12-13T01:30:53.017Z,99.99
2022-12-13T01:31:52.983Z,99.99
2022-12-13T01:32:52.997Z,99.99
2022-12-13T01:33:52.950Z,99.99
2022-12-13T01:34:52.970Z,99.99
2022-12-13T01:35:53.010Z,99.99
2022-12-13T01:36:52.937Z,99.99
2022-12-13T01:37:53.931Z,99.99
2022-12-13T01:38:52.992Z,99.99
2022-12-13T01:39:53.929Z,99.99
2022-12-13T01:40:52.894Z,99.99
2022-12-13T01:41:53.900Z,99.99
2022-12-13T01:42:52.886Z,99.99
2022-12-13T01:43:52.899Z,99.99
2022-12-13T01:44:52.905Z,99.99
2022-12-13T01:45:52.911Z,99.99
2022-12-13T01:46:52.857Z,99.99
2022-12-13T01:47:52.870Z,99.99
2022-12-13T01:48:52.853Z,99.99
2022-12-13T01:49:52.857Z,99.99
2022-12-13T01:50:52.861Z,99.99
2022-12-13T01:51:52.815Z,99.99
2022-12-13T01:52:52.839Z,99.99
2022-12-13T01:53:52.802Z,99.99
2022-12-13T01:55:24.729Z,99.99
2022-12-13T01:55:52.790Z,99.99
2022-12-13T01:56:52.861Z,99.99
2022-12-13T01:57:53.804Z,99.99
2022-12-13T01:58:52.783Z,99.99
2022-12-13T01:59:52.760Z,99.99
2022-12-13T02:00:52.777Z,99.99
2022-12-13T02:01:52.761Z,99.99
2022-12-13T02:02:53.761Z,99.99
2022-12-13T02:03:52.748Z,99.99
2022-12-13T02:04:52.800Z,99.99
2022-12-13T02:05:52.774Z,99.99
2022-12-13T02:06:52.762Z,99.99
2022-12-13T02:07:52.778Z,99.99
2022-12-13T02:08:52.699Z,99.99
2022-12-13T02:09:56.807Z,99.99
2022-12-13T02:10:52.744Z,99.99
2022-12-13T02:11:52.688Z,99.99
2022-12-13T02:12:52.683Z,99.99
2022-12-13T02:13:52.659Z,99.99
2022-12-13T02:14:52.744Z,99.99
2022-12-13T02:15:52.701Z,99.99
2022-12-13T02:16:52.660Z,99.99
2022-12-13T02:17:52.642Z,99.99
2022-12-13T02:18:52.615Z,99.99
2022-12-13T02:19:52.650Z,99.99
2022-12-13T02:20:52.646Z,99.99
2022-12-13T02:21:52.602Z,99.99
2022-12-13T02:22:52.616Z,99.99
2022-12-13T02:23:52.625Z,99.99
2022-12-13T02:24:52.592Z,99.99
2022-12-13T02:25:52.593Z,99.99
2022-12-13T02:26:52.652Z,99.99
2022-12-13T02:27:52.629Z,99.99
2022-12-13T02:28:53.587Z,99.99
2022-12-13T02:29:53.928Z,99.99
2022-12-13T02:30:52.583Z,99.99
2022-12-13T02:31:52.540Z,99.99
2022-12-13T02:32:52.589Z,99.99
2022-12-13T02:33:52.509Z,99.99
2022-12-13T02:34:52.542Z,99.99
2022-12-13T02:35:52.890Z,99.99
2022-12-13T02:36:52.496Z,99.99
2022-12-13T02:37:52.506Z,99.99
2022-12-13T02:38:52.483Z,99.99
2022-12-13T02:39:52.543Z,99.99
2022-12-13T02:40:52.483Z,99.99
2022-12-13T02:41:52.472Z,99.99
2022-12-13T02:42:52.454Z,99.99
2022-12-13T02:43:52.464Z,99.99
2022-12-13T02:44:53.467Z,99.99
2022-12-13T02:45:52.484Z,99.99
2022-12-13T02:46:52.467Z,99.99
2022-12-13T02:47:52.424Z,99.99
2022-12-13T02:48:52.427Z,99.99
2022-12-13T02:49:52.413Z,99.99
2022-12-13T02:50:52.426Z,99.99
2022-12-13T02:51:52.409Z,99.99
2022-12-13T02:52:52.386Z,99.99
2022-12-13T02:53:52.386Z,99.99
2022-12-13T02:54:52.380Z,99.99
2022-12-13T02:55:52.381Z,99.99
2022-12-13T02:56:52.363Z,99.99
2022-12-13T02:57:52.445Z,99.99
2022-12-13T02:58:52.356Z,99.99
2022-12-13T02:59:52.711Z,99.99
2022-12-13T03:00:52.349Z,99.99
2022-12-13T03:01:52.375Z,99.99
2022-12-13T03:02:53.410Z,99.99
2022-12-13T03:03:52.393Z,99.99
2022-12-13T03:04:52.296Z,99.99
2022-12-13T03:05:52.979Z,99.99
2022-12-13T03:06:52.290Z,99.99
2022-12-13T03:07:52.336Z,99.99
2022-12-13T03:08:52.272Z,99.99
2022-12-13T03:09:52.274Z,99.99
2022-12-13T03:10:52.279Z,99.99
2022-12-13T03:11:52.260Z,99.99
2022-12-13T03:12:52.388Z,99.99
2022-12-13T03:13:52.236Z,99.99
2022-12-13T03:14:52.258Z,99.99
2022-12-13T03:15:52.382Z,99.99
2022-12-13T03:16:52.216Z,99.99
2022-12-13T03:17:52.222Z,99.99
2022-12-13T03:18:52.231Z,99.99
2022-12-13T03:19:52.196Z,99.99
2022-12-13T03:20:52.200Z,99.99
2022-12-13T03:21:52.171Z,99.99
2022-12-13T03:22:52.170Z,99.99
2022-12-13T03:23:52.192Z,99.99
2022-12-13T03:24:52.153Z,99.99
2022-12-13T03:25:52.162Z,99.99
2022-12-13T03:27:24.072Z,99.99
2022-12-13T03:27:52.152Z,99.99
2022-12-13T03:28:52.192Z,99.99
2022-12-13T03:29:52.111Z,99.99
2022-12-13T03:30:52.188Z,99.99
2022-12-13T03:31:52.127Z,99.99
2022-12-13T03:32:52.098Z,99.99
2022-12-13T03:33:52.092Z,99.99
2022-12-13T03:35:00.697Z,99.99
2022-12-13T03:35:54.080Z,99.99
2022-12-13T03:36:52.077Z,99.99
2022-12-13T03:37:52.048Z,99.99
2022-12-13T03:38:52.067Z,99.99
2022-12-13T03:39:52.043Z,99.99
2022-12-13T03:40:52.060Z,99.99
2022-12-13T03:41:52.091Z,99.99
2022-12-13T03:42:52.045Z,99.99
2022-12-13T03:43:53.012Z,99.99
2022-12-13T03:44:52.013Z,99.99
2022-12-13T03:45:52.003Z,99.99
2022-12-13T03:46:52.048Z,99.99
2022-12-13T03:47:51.988Z,99.99
2022-12-13T04:03:13.225Z,99.99
2022-12-13T04:04:13.099Z,99.99
2022-12-13T04:05:14.504Z,99.99
2022-12-13T04:06:22.438Z,99.99
2022-12-13T04:07:22.378Z,99.99
2022-12-13T04:08:22.454Z,99.99
2022-12-13T04:09:15.200Z,99.99
2022-12-13T04:10:25.157Z,99.99
2022-12-13T04:11:15.176Z,99.99
2022-12-13T04:12:14.168Z,99.99
2022-12-13T04:13:14.144Z,99.99
2022-12-13T04:14:21.887Z,99.99
2022-12-13T04:15:15.513Z,99.99
2022-12-13T04:16:14.171Z,99.99
2022-12-13T04:17:14.146Z,99.99
2022-12-13T04:18:14.117Z,99.99
2022-12-13T04:19:14.117Z,99.99
2022-12-13T04:20:14.105Z,99.99
2022-12-13T04:21:14.087Z,99.99
2022-12-13T04:22:14.089Z,99.99
2022-12-13T04:23:14.085Z,99.99
2022-12-13T04:24:14.087Z,99.99
2022-12-13T04:25:14.267Z,99.99
2022-12-13T04:26:14.047Z,99.99
2022-12-13T04:27:14.047Z,99.99
2022-12-13T04:28:22.347Z,99.99
2022-12-13T04:29:15.057Z,99.99
2022-12-13T04:30:14.057Z,99.99
2022-12-13T04:31:14.090Z,99.99
2022-12-13T04:32:25.938Z,99.99
2022-12-13T04:33:15.066Z,99.99
2022-12-13T04:34:13.999Z,99.99
2022-12-13T04:35:14.514Z,99.99
2022-12-13T04:36:14.006Z,99.99
2022-12-13T04:37:15.059Z,99.99
2022-12-13T04:38:13.967Z,99.99
2022-12-13T04:39:22.562Z,99.99
2022-12-13T04:40:14.959Z,99.99
2022-12-13T04:41:14.975Z,99.99
2022-12-13T04:42:13.927Z,99.99
2022-12-13T04:43:13.949Z,99.99
2022-12-13T04:44:28.181Z,99.99
2022-12-13T04:45:15.262Z,99.99
2022-12-13T04:46:13.972Z,99.99
2022-12-13T04:47:13.918Z,99.99
2022-12-13T04:48:13.895Z,99.99
2022-12-13T04:49:14.875Z,99.99
2022-12-13T04:50:13.905Z,99.99
2022-12-13T04:51:13.910Z,99.99
2022-12-13T04:52:13.873Z,99.99
2022-12-13T04:53:14.879Z,99.99
2022-12-13T04:54:24.658Z,99.99
2022-12-13T04:55:15.098Z,99.99
2022-12-13T04:56:13.904Z,99.99
2022-12-13T04:57:13.847Z,99.99
2022-12-13T04:58:18.325Z,99.99
2022-12-13T04:59:14.828Z,99.99
2022-12-13T05:00:13.798Z,99.99
2022-12-13T05:01:13.840Z,99.99
2022-12-13T05:02:13.863Z,99.99
2022-12-13T05:03:14.801Z,99.99
2022-12-13T05:04:13.774Z,99.99
2022-12-13T05:05:14.172Z,99.99
2022-12-13T05:06:26.698Z,99.99
2022-12-13T05:07:14.754Z,99.99
2022-12-13T05:08:13.797Z,99.99
2022-12-13T05:09:13.769Z,99.99
2022-12-13T05:10:35.962Z,99.99
2022-12-13T05:11:14.737Z,99.99
2022-12-13T05:12:22.684Z,99.99
2022-12-13T05:13:14.730Z,99.99
2022-12-13T05:14:13.711Z,99.99
2022-12-13T05:15:14.111Z,99.99
2022-12-13T05:16:13.770Z,99.99
2022-12-13T05:17:13.747Z,99.99
2022-12-13T05:18:13.690Z,99.99
2022-12-13T05:19:13.683Z,99.99
2022-12-13T05:20:13.709Z,99.99
2022-12-13T05:21:13.656Z,99.99
2022-12-13T05:22:19.165Z,99.99
2022-12-13T05:23:22.172Z,99.99
2022-12-13T05:24:14.627Z,99.99
2022-12-13T05:25:14.078Z,99.99
2022-12-13T05:26:13.619Z,99.99
2022-12-13T05:27:24.994Z,99.99
2022-12-13T05:28:28.193Z,99.99
2022-12-13T05:29:14.612Z,99.99
2022-12-13T05:30:13.590Z,99.99
2022-12-13T05:31:23.657Z,99.99
2022-12-13T05:32:14.664Z,99.99
2022-12-13T05:33:13.589Z,99.99
2022-12-13T05:34:13.555Z,99.99
2022-12-13T05:35:45.482Z,99.99
2022-12-13T05:36:13.554Z,99.99
2022-12-13T05:37:45.479Z,99.99
2022-12-13T05:38:13.532Z,99.99
2022-12-13T05:39:29.373Z,99.99
2022-12-13T05:40:14.792Z,99.99
2022-12-13T05:41:13.525Z,99.99
2022-12-13T05:42:45.415Z,99.99
2022-12-13T05:43:21.174Z,99.99
2022-12-13T05:44:14.482Z,99.99
2022-12-13T05:45:13.847Z,99.99
2022-12-13T05:46:45.574Z,99.99
2022-12-13T05:47:13.493Z,99.99
2022-12-13T05:48:13.489Z,99.99
2022-12-13T05:49:13.476Z,99.99
2022-12-13T05:50:45.372Z,99.99
2022-12-13T05:51:13.448Z,99.99
2022-12-13T05:52:45.337Z,99.99
2022-12-13T05:53:13.497Z,99.99
2022-12-13T05:54:45.373Z,99.99
2022-12-13T05:55:13.724Z,99.99
2022-12-13T05:56:13.434Z,99.99
2022-12-13T05:57:14.419Z,99.99
2022-12-13T05:58:46.332Z,99.99
2022-12-13T05:59:14.374Z,99.99
2022-12-13T06:00:28.917Z,99.99
2022-12-13T06:01:14.370Z,99.99
2022-12-13T06:02:16.886Z,99.99
2022-12-13T06:03:15.549Z,99.99
2022-12-13T06:04:22.994Z,99.99
2022-12-13T06:05:14.773Z,99.99
2022-12-13T06:06:45.240Z,99.99
2022-12-13T06:07:13.328Z,99.99
2022-12-13T06:08:24.361Z,99.99
2022-12-13T06:09:14.331Z,99.99
2022-12-13T06:10:13.341Z,99.99
2022-12-13T06:11:31.936Z,99.99
2022-12-13T06:12:31.861Z,99.99
2022-12-13T06:13:21.534Z,99.99
2022-12-13T06:14:21.845Z,99.99
2022-12-13T06:15:22.664Z,99.99
2022-12-13T06:16:22.769Z,99.99
2022-12-13T06:17:14.292Z,99.99
2022-12-13T06:18:14.261Z,99.99
2022-12-13T06:19:45.164Z,99.99
2022-12-13T06:20:23.431Z,99.99
2022-12-13T06:21:14.264Z,99.99
2022-12-13T06:22:13.217Z,99.99
2022-12-13T06:23:13.202Z,99.99
2022-12-13T06:24:13.226Z,99.99
2022-12-13T06:25:31.149Z,99.99
2022-12-13T06:26:14.197Z,99.99
2022-12-13T06:27:13.201Z,99.99
2022-12-13T06:28:13.184Z,99.99
2022-12-13T06:29:13.159Z,99.99
2022-12-13T06:30:14.173Z,99.99
2022-12-13T06:31:13.190Z,99.99
2022-12-13T06:32:13.182Z,99.99
2022-12-13T06:33:13.397Z,99.99
2022-12-13T06:34:14.541Z,99.99
2022-12-13T06:35:28.748Z,99.99
2022-12-13T06:36:14.124Z,99.99
2022-12-13T06:37:13.107Z,99.99
2022-12-13T06:38:13.123Z,99.99
2022-12-13T06:39:14.103Z,99.99
2022-12-13T06:40:13.079Z,99.99
2022-12-13T06:41:13.104Z,99.99
2022-12-13T06:42:13.079Z,99.99
2022-12-13T06:43:14.148Z,99.99
2022-12-13T06:44:13.082Z,99.99
2022-12-13T06:45:13.047Z,99.99
2022-12-13T06:46:13.523Z,99.99
2022-12-13T06:47:13.068Z,99.99
2022-12-13T06:48:18.754Z,99.99
2022-12-13T06:49:15.019Z,99.99
2022-12-13T06:50:13.067Z,99.99
2022-12-13T06:51:13.003Z,99.99
2022-12-13T06:52:14.092Z,99.99
2022-12-13T06:53:12.999Z,99.99
2022-12-13T06:54:12.973Z,99.99
2022-12-13T06:55:12.985Z,99.99
2022-12-13T06:56:12.984Z,99.99
2022-12-13T06:57:12.974Z,99.99
2022-12-13T06:58:12.958Z,99.99
2022-12-13T06:59:12.965Z,99.99
2022-12-13T07:00:12.972Z,99.99
2022-12-13T07:01:14.567Z,99.99
2022-12-13T07:02:25.233Z,99.99
2022-12-13T07:03:13.974Z,99.99
2022-12-13T07:04:29.957Z,99.99
2022-12-13T07:05:13.958Z,99.99
2022-12-13T07:06:12.902Z,99.99
2022-12-13T07:07:12.891Z,99.99
2022-12-13T07:08:12.913Z,99.99
2022-12-13T07:09:13.886Z,99.99
2022-12-13T07:10:22.654Z,99.99
2022-12-13T07:11:13.886Z,99.99
2022-12-13T07:12:12.885Z,99.99
2022-12-13T07:13:12.910Z,99.99
2022-12-13T07:14:12.867Z,99.99
2022-12-13T07:15:12.829Z,99.99
2022-12-13T07:16:12.924Z,99.99
2022-12-13T07:17:12.818Z,99.99
2022-12-13T07:18:13.817Z,99.99
2022-12-13T07:19:22.536Z,99.99
2022-12-13T07:20:13.789Z,99.99
2022-12-13T07:21:21.568Z,99.99
2022-12-13T07:22:13.803Z,99.99
2022-12-13T07:23:12.778Z,99.99
2022-12-13T07:24:12.754Z,99.99
2022-12-13T07:25:28.235Z,99.99
2022-12-13T07:26:17.454Z,99.99
2022-12-13T07:27:12.797Z,99.99
2022-12-13T07:28:12.749Z,99.99
2022-12-13T07:29:12.718Z,99.99
2022-12-13T07:30:13.747Z,99.99
2022-12-13T07:31:12.766Z,99.99
2022-12-13T07:32:12.710Z,99.99
2022-12-13T07:33:12.736Z,99.99
2022-12-13T07:34:15.698Z,99.99
2022-12-13T07:35:13.720Z,99.99
2022-12-13T07:36:12.682Z,99.99
2022-12-13T07:37:30.350Z,99.99
2022-12-13T07:38:13.661Z,99.99
2022-12-13T07:39:12.668Z,99.99
2022-12-13T07:40:12.642Z,99.99
2022-12-13T07:41:12.705Z,99.99
2022-12-13T07:42:13.655Z,99.99
2022-12-13T07:43:12.648Z,99.99
2022-12-13T07:44:12.636Z,99.99
2022-12-13T07:45:12.627Z,99.99
2022-12-13T07:46:12.671Z,99.99
2022-12-13T07:47:12.615Z,99.99
2022-12-13T07:48:12.592Z,99.99
2022-12-13T07:49:12.616Z,99.99
2022-12-13T07:50:23.939Z,99.99
2022-12-13T07:51:13.616Z,99.99
2022-12-13T07:52:12.622Z,99.99
2022-12-13T07:53:12.577Z,99.99
2022-12-13T07:54:12.589Z,99.99
2022-12-13T07:55:12.550Z,99.99
2022-12-13T07:56:12.575Z,99.99
2022-12-13T07:57:12.539Z,99.99
2022-12-13T07:58:13.121Z,99.99
2022-12-13T07:59:12.524Z,99.99
2022-12-13T08:00:13.543Z,99.99
2022-12-13T08:01:12.510Z,99.99
2022-12-13T08:02:12.541Z,99.99
2022-12-13T08:03:24.463Z,99.99
2022-12-13T08:04:14.505Z,99.99
2022-12-13T08:05:25.971Z,99.99
2022-12-13T08:06:13.461Z,99.99
2022-12-13T08:07:12.461Z,99.99
2022-12-13T08:08:13.547Z,99.99
2022-12-13T08:09:12.463Z,99.99
2022-12-13T08:10:12.479Z,99.99
2022-12-13T08:11:12.411Z,99.99
2022-12-13T08:12:12.433Z,99.99
2022-12-13T11:47:20.026Z,86.16
2022-12-13T11:48:20.042Z,86.52
2022-12-13T11:49:21.766Z,87.85
2022-12-13T11:50:32.952Z,86.76
2022-12-13T11:51:23.132Z,87.00
2022-12-13T11:52:21.127Z,88.79
2022-12-13T11:53:21.147Z,89.59
2022-12-13T11:54:23.871Z,88.71
2022-12-13T11:55:21.122Z,89.09
2022-12-13T11:56:21.083Z,87.52
2022-12-13T11:57:21.096Z,87.23
2022-12-13T11:58:38.837Z,87.50
2022-12-13T11:59:26.834Z,86.30
2022-12-13T12:00:34.014Z,85.57
2022-12-13T12:01:22.080Z,83.69
2022-12-13T12:02:21.745Z,84.86
2022-12-13T12:03:21.096Z,86.55
2022-12-13T12:04:21.031Z,89.12
2022-12-13T12:05:21.025Z,90.14
2022-12-13T12:06:21.020Z,88.66
2022-12-13T12:07:36.445Z,89.86
2022-12-13T12:08:31.688Z,88.35
2022-12-13T12:09:23.012Z,88.62
2022-12-13T12:10:21.069Z,88.37
2022-12-13T12:11:21.018Z,88.96
2022-12-13T12:12:22.258Z,88.18
2022-12-13T12:13:20.975Z,86.54
2022-12-13T12:14:20.975Z,86.90
2022-12-13T12:15:27.047Z,87.95
2022-12-13T12:16:21.979Z,88.27
2022-12-13T12:17:20.927Z,87.57
2022-12-13T12:18:20.916Z,88.52
2022-12-13T12:19:21.080Z,88.48
2022-12-13T12:20:23.502Z,88.58
2022-12-13T12:21:20.890Z,88.52
2022-12-13T12:22:20.969Z,88.69
2022-12-13T12:23:20.885Z,88.20
2022-12-13T12:24:20.879Z,88.66
2022-12-13T12:25:21.563Z,90.28
2022-12-13T12:26:20.880Z,90.45
2022-12-13T12:27:22.530Z,90.98
2022-12-13T12:28:20.841Z,90.56
2022-12-13T12:29:20.926Z,90.28
2022-12-13T12:30:23.478Z,90.67
2022-12-13T12:31:21.820Z,90.35
2022-12-13T12:32:20.841Z,89.82
2022-12-13T12:33:21.694Z,89.86
2022-12-13T12:34:27.028Z,90.14
2022-12-13T12:35:21.839Z,91.13
2022-12-13T12:36:20.788Z,90.50
2022-12-13T12:37:20.761Z,90.75
2022-12-13T12:38:20.757Z,91.38
2022-12-13T12:39:20.783Z,91.66
2022-12-13T12:40:21.766Z,91.24
2022-12-13T12:41:20.741Z,91.86
2022-12-13T12:42:20.734Z,91.66
2022-12-13T12:43:20.731Z,91.17
2022-12-13T12:44:20.731Z,91.02
2022-12-13T12:45:54.526Z,91.49
2022-12-13T12:46:22.806Z,91.85
2022-12-13T12:48:25.258Z,91.91
2022-12-13T12:48:50.888Z,91.38
2022-12-13T12:49:22.878Z,92.54
2022-12-13T12:50:20.676Z,91.70
2022-12-13T12:51:20.681Z,91.86
2022-12-13T12:52:20.658Z,91.86
2022-12-13T12:53:20.644Z,92.25
2022-12-13T12:54:20.657Z,91.76
2022-12-13T12:55:20.624Z,91.66
2022-12-13T12:56:20.610Z,92.08
2022-12-13T12:57:20.620Z,92.18
2022-12-13T12:58:20.637Z,92.50
2022-12-13T12:59:20.630Z,92.92
2022-12-13T13:00:20.615Z,92.76
2022-12-13T13:01:20.736Z,93.07
2022-12-13T13:02:21.309Z,92.54
2022-12-13T13:03:26.805Z,93.28
2022-12-13T13:04:23.112Z,92.96
2022-12-13T13:05:20.558Z,92.54
2022-12-13T13:06:20.582Z,93.28
2022-12-13T13:07:22.527Z,92.54
2022-12-13T13:08:21.218Z,93.07
2022-12-13T13:09:24.724Z,93.18
2022-12-13T13:10:26.890Z,93.19
2022-12-13T13:11:24.468Z,92.12
2022-12-13T13:12:29.415Z,92.86
2022-12-13T13:13:32.799Z,92.69
2022-12-13T13:14:21.489Z,93.38
2022-12-13T13:15:20.504Z,93.28
2022-12-13T13:16:21.839Z,93.18
2022-12-13T13:17:20.453Z,93.38
2022-12-13T13:18:22.470Z,93.11
2022-12-13T13:19:25.513Z,93.74
2022-12-13T13:20:21.536Z,93.54
2022-12-13T13:21:20.436Z,93.38
2022-12-13T13:22:31.458Z,93.07
2022-12-13T13:23:39.972Z,93.28
2022-12-13T13:24:22.419Z,92.71
2022-12-13T13:25:20.412Z,92.92
2022-12-13T13:26:32.756Z,92.40
2022-12-13T13:27:23.072Z,92.86
2022-12-13T13:28:21.220Z,93.28
2022-12-13T13:29:27.746Z,93.49
2022-12-13T13:30:21.412Z,93.66
2022-12-13T13:31:21.356Z,93.18
2022-12-13T13:32:28.044Z,93.60
2022-12-13T13:33:21.435Z,93.80
2022-12-13T13:34:22.163Z,93.49
2022-12-13T13:35:20.354Z,93.38
2022-12-13T13:36:29.142Z,93.07
2022-12-13T13:37:23.113Z,93.18
2022-12-13T13:38:21.308Z,93.45
2022-12-13T13:39:20.295Z,93.55
2022-12-13T13:40:30.611Z,93.45
2022-12-13T13:41:21.288Z,93.13
2022-12-13T13:42:20.329Z,93.13
2022-12-13T13:43:20.266Z,93.45
2022-12-13T13:44:23.069Z,93.24
2022-12-13T13:45:22.204Z,93.13
2022-12-13T13:46:20.297Z,92.99
2022-12-13T13:47:20.776Z,93.19
2022-12-13T13:48:20.238Z,93.09
2022-12-13T13:49:20.210Z,92.71
2022-12-13T13:50:20.206Z,92.88
2022-12-13T13:51:20.218Z,92.88
2022-12-13T13:52:27.552Z,92.82
2022-12-13T13:53:22.492Z,92.92
2022-12-13T13:54:20.201Z,93.24
2022-12-13T13:55:20.165Z,93.49
2022-12-13T13:56:20.170Z,93.45
2022-12-13T13:57:22.388Z,93.55
2022-12-13T13:58:22.260Z,93.66
2022-12-13T13:59:20.398Z,93.45
2022-12-13T14:00:20.139Z,93.77
2022-12-13T14:01:20.211Z,93.87
2022-12-13T14:02:20.195Z,94.40
2022-12-13T14:03:29.116Z,93.45
2022-12-13T14:04:22.637Z,93.77
2022-12-13T14:05:20.098Z,93.55
2022-12-13T14:06:20.101Z,93.38
2022-12-13T14:07:26.404Z,93.70
2022-12-13T14:08:22.105Z,94.44
2022-12-13T14:09:20.138Z,94.23
2022-12-13T14:10:20.090Z,94.12
2022-12-13T14:11:20.081Z,94.38
2022-12-13T14:12:20.579Z,95.18
2022-12-13T14:13:20.114Z,94.97
2022-12-13T14:14:21.964Z,95.33
2022-12-13T14:15:20.025Z,95.07
2022-12-13T14:16:20.138Z,95.07
2022-12-13T14:17:21.031Z,95.18
2022-12-13T14:18:21.418Z,96.07
2022-12-13T14:19:19.980Z,95.81
2022-12-13T14:20:20.030Z,96.07
2022-12-13T14:21:20.592Z,96.03
2022-12-13T14:22:19.985Z,95.60
2022-12-13T14:23:21.858Z,95.71
2022-12-13T14:24:19.960Z,96.07
2022-12-13T14:25:19.945Z,95.71
2022-12-13T14:26:19.942Z,95.64
2022-12-13T14:27:20.012Z,95.60
2022-12-13T14:28:20.012Z,96.07
2022-12-13T14:29:19.918Z,95.71
2022-12-13T14:30:28.237Z,96.07
2022-12-13T14:31:22.328Z,96.03
2022-12-13T14:32:51.806Z,95.75
2022-12-13T14:33:19.887Z,95.60
2022-12-13T14:34:19.873Z,95.60
2022-12-13T14:35:26.212Z,95.50
2022-12-13T14:36:20.881Z,95.81
2022-12-13T14:37:19.964Z,96.23
2022-12-13T14:38:19.857Z,96.03
2022-12-13T14:39:24.964Z,96.07
2022-12-13T14:40:20.851Z,95.86
2022-12-13T14:41:19.838Z,95.81
2022-12-13T14:42:19.858Z,95.96
2022-12-13T14:43:23.975Z,96.39
2022-12-13T14:44:19.793Z,96.39
2022-12-13T14:45:19.844Z,96.07
2022-12-13T14:46:19.833Z,96.07
2022-12-13T14:47:19.815Z,96.49
2022-12-13T14:48:28.784Z,96.28
2022-12-13T14:49:20.779Z,96.81
2022-12-13T14:50:21.604Z,96.28
2022-12-13T14:51:19.764Z,96.59
2022-12-13T14:52:26.065Z,97.23
2022-12-13T14:53:20.826Z,97.17
2022-12-13T14:54:25.504Z,97.13
2022-12-13T14:55:21.742Z,97.27
2022-12-13T14:56:27.730Z,97.13
2022-12-13T14:57:20.699Z,97.13
2022-12-13T14:58:19.691Z,97.13
2022-12-13T14:59:20.687Z,97.13
2022-12-13T15:00:19.739Z,96.85
2022-12-13T15:01:19.723Z,96.43
2022-12-13T15:02:31.030Z,97.44
2022-12-13T15:03:20.674Z,97.17
2022-12-13T15:04:19.742Z,96.85
2022-12-13T15:05:28.387Z,96.64
2022-12-13T15:06:20.678Z,96.43
2022-12-13T15:07:20.120Z,96.43
2022-12-13T15:08:19.658Z,96.37
2022-12-13T15:09:20.379Z,96.37
2022-12-13T15:10:19.662Z,96.15
2022-12-13T15:11:20.108Z,96.37
2022-12-13T15:12:24.718Z,96.73
2022-12-13T15:13:21.108Z,97.36
2022-12-13T15:14:19.590Z,96.94
2022-12-13T15:15:19.597Z,96.88
2022-12-13T15:16:19.615Z,97.57
2022-12-13T15:17:19.578Z,97.30
2022-12-13T15:18:19.560Z,97.05
2022-12-13T15:19:30.250Z,97.09
2022-12-13T15:20:20.654Z,97.30
2022-12-13T15:21:19.549Z,97.72
2022-12-13T15:22:19.545Z,97.30
2022-12-13T15:23:19.513Z,98.14
2022-12-13T15:24:19.510Z,97.98
2022-12-13T15:25:19.508Z,98.04
2022-12-13T15:26:29.120Z,97.72
2022-12-13T15:27:48.416Z,97.98
2022-12-13T15:28:22.002Z,98.08
2022-12-13T15:29:19.492Z,97.87
2022-12-13T15:30:19.545Z,97.87
2022-12-13T15:31:19.598Z,98.08
2022-12-13T15:32:19.443Z,98.08
2022-12-13T15:33:19.481Z,98.02
2022-12-13T15:34:28.518Z,98.02
2022-12-13T15:35:20.446Z,97.49
2022-12-13T15:36:19.525Z,98.24
2022-12-13T15:37:29.378Z,98.24
2022-12-13T15:38:28.021Z,98.02
2022-12-13T15:39:21.141Z,97.96
2022-12-13T15:40:19.427Z,97.85
2022-12-13T15:41:19.384Z,97.85
2022-12-13T15:42:19.873Z,98.81
2022-12-13T15:43:19.362Z,98.38
2022-12-13T15:44:19.420Z,98.49
2022-12-13T15:45:19.372Z,98.66
2022-12-13T15:46:19.427Z,98.17
2022-12-13T15:47:28.425Z,98.49
2022-12-13T15:48:20.351Z,98.38
2022-12-13T15:49:19.326Z,98.70
2022-12-13T15:50:19.339Z,98.60
2022-12-13T15:51:28.429Z,98.49
2022-12-13T15:52:20.354Z,99.13
2022-12-13T15:53:19.297Z,99.02
2022-12-13T15:54:19.799Z,98.70
2022-12-13T15:55:19.783Z,98.91
2022-12-13T15:56:19.309Z,98.70
2022-12-13T15:57:19.375Z,98.74
2022-12-13T15:58:19.371Z,98.70
2022-12-13T15:59:19.462Z,98.85
2022-12-13T16:00:19.263Z,98.54
2022-12-13T16:01:20.340Z,99.80
2022-12-13T16:02:19.527Z,99.76
2022-12-13T16:03:19.291Z,99.76
2022-12-13T16:04:19.265Z,99.80
2022-12-13T16:05:20.142Z,99.59
2022-12-13T16:06:19.218Z,99.70
2022-12-13T16:07:19.236Z,98.96
2022-12-13T16:08:20.135Z,98.85
2022-12-13T16:09:19.194Z,98.68
2022-12-13T16:10:19.206Z,98.68
2022-12-13T16:11:19.228Z,98.90
2022-12-13T16:12:19.185Z,98.79
2022-12-13T16:13:25.614Z,99.00
2022-12-13T16:14:25.524Z,98.90
2022-12-13T16:15:29.515Z,98.90
2022-12-13T16:16:26.583Z,98.79
2022-12-13T16:17:20.709Z,98.90
2022-12-13T16:18:19.114Z,98.90
2022-12-13T16:19:19.144Z,98.79
2022-12-13T16:20:19.194Z,99.11
2022-12-13T16:21:19.143Z,99.11
2022-12-13T16:22:19.232Z,99.00
2022-12-13T16:23:27.116Z,99.00
2022-12-13T16:24:20.107Z,98.90
2022-12-13T16:25:19.104Z,98.90
2022-12-13T16:26:19.062Z,98.94
2022-12-13T16:27:19.036Z,98.94
2022-12-13T16:28:19.665Z,98.83
2022-12-13T16:29:19.675Z,99.11
2022-12-13T16:30:19.072Z,99.00
2022-12-13T16:31:19.081Z,98.83
2022-12-13T16:32:19.049Z,98.94
2022-12-13T16:33:26.647Z,99.79
2022-12-13T16:34:21.003Z,99.90
2022-12-13T16:35:20.026Z,99.99
2022-12-13T16:36:19.391Z,99.68
2022-12-13T16:37:26.342Z,99.79
2022-12-13T16:38:26.406Z,99.68
2022-12-13T16:39:19.971Z,99.90
2022-12-13T16:40:18.987Z,99.90
2022-12-13T16:41:19.686Z,99.90